Map

Track Data

SID SEASON NUMBER BASIN SUBBASIN NAME ISO_TIME NATURE LAT LON WMO_WIND WMO_PRES WMO_AGENCY TRACK_TYPE DIST2LAND LANDFALL IFLAG USA_AGENCY USA_ATCF_ID USA_LAT USA_LON USA_RECORD USA_STATUS USA_WIND USA_PRES USA_SSHS USA_R34_NE USA_R34_SE USA_R34_SW USA_R34_NW USA_R50_NE USA_R50_SE USA_R50_SW USA_R50_NW USA_R64_NE USA_R64_SE USA_R64_SW USA_R64_NW USA_POCI USA_ROCI USA_RMW USA_EYE TOKYO_LAT TOKYO_LON TOKYO_GRADE TOKYO_WIND TOKYO_PRES TOKYO_R50_DIR TOKYO_R50_LONG TOKYO_R50_SHORT TOKYO_R30_DIR TOKYO_R30_LONG TOKYO_R30_SHORT TOKYO_LAND CMA_LAT CMA_LON CMA_CAT CMA_WIND CMA_PRES HKO_LAT HKO_LON HKO_CAT HKO_WIND HKO_PRES NEWDELHI_LAT NEWDELHI_LON NEWDELHI_GRADE NEWDELHI_WIND NEWDELHI_PRES NEWDELHI_CI NEWDELHI_DP NEWDELHI_POCI REUNION_LAT REUNION_LON REUNION_TYPE REUNION_WIND REUNION_PRES REUNION_TNUM REUNION_CI REUNION_RMW REUNION_R34_NE REUNION_R34_SE REUNION_R34_SW REUNION_R34_NW REUNION_R50_NE REUNION_R50_SE REUNION_R50_SW REUNION_R50_NW REUNION_R64_NE REUNION_R64_SE REUNION_R64_SW REUNION_R64_NW BOM_LAT BOM_LON BOM_TYPE BOM_WIND BOM_PRES BOM_TNUM BOM_CI BOM_RMW BOM_R34_NE BOM_R34_SE BOM_R34_SW BOM_R34_NW BOM_R50_NE BOM_R50_SE BOM_R50_SW BOM_R50_NW BOM_R64_NE BOM_R64_SE BOM_R64_SW BOM_R64_NW BOM_ROCI BOM_POCI BOM_EYE BOM_POS_METHOD BOM_PRES_METHOD NADI_LAT NADI_LON NADI_CAT NADI_WIND NADI_PRES WELLINGTON_LAT WELLINGTON_LON WELLINGTON_WIND WELLINGTON_PRES DS824_LAT DS824_LON DS824_STAGE DS824_WIND DS824_PRES TD9636_LAT TD9636_LON TD9636_STAGE TD9636_WIND TD9636_PRES TD9635_LAT TD9635_LON TD9635_WIND TD9635_PRES TD9635_ROCI NEUMANN_LAT NEUMANN_LON NEUMANN_CLASS NEUMANN_WIND NEUMANN_PRES MLC_LAT MLC_LON MLC_CLASS MLC_WIND MLC_PRES USA_GUST BOM_GUST BOM_GUST_PER REUNION_GUST REUNION_GUST_PER USA_SEAHGT USA_SEARAD_NE USA_SEARAD_SE USA_SEARAD_SW USA_SEARAD_NW STORM_SPEED STORM_DIR
1981281N15245 1981 90 EP MM MAX 1981-10-07 18:00:00 TS 15.1000 -115.400 25 hurdat_epa main 1040 1040 O_________O___ hurdat_epa EP131981 15.1000 -115.400 TD 25 -1 15.1000 -115.400 1 25 5 275
1981281N15245 1981 90 EP MM MAX 1981-10-07 21:00:00 TS 15.1233 -115.678 main 1058 1054 P_________P___ EP131981 15.1226 -115.680 TD 27 -1 15.1254 -115.671 1 27 5 282
1981281N15245 1981 90 EP MM MAX 1981-10-08 00:00:00 TS 15.2000 -115.900 30 hurdat_epa main 1060 1048 O_________O___ hurdat_epa EP131981 15.2000 -115.900 TD 30 -1 15.2000 -115.900 1 30 4 306
1981281N15245 1981 90 EP MM MAX 1981-10-08 03:00:00 TS 15.3674 -116.031 main 1048 1037 P_________P___ EP131981 15.3700 -116.023 TD 32 -1 15.3597 -116.055 1 32 4 333
1981281N15245 1981 90 EP MM MAX 1981-10-08 06:00:00 TS 15.5963 -116.114 35 hurdat_epa main 1037 1026 O_________P___ hurdat_epa EP131981 15.6000 -116.100 TS 35 0 15.5850 -116.155 1 35 5 341
1981281N15245 1981 90 EP MM MAX 1981-10-08 09:00:00 TS 15.8482 -116.207 main 1026 1006 P_________P___ EP131981 15.8500 -116.200 TS 37 0 15.8429 -116.227 1 37 5 340
1981281N15245 1981 90 EP MM MAX 1981-10-08 12:00:00 TS 16.1000 -116.300 40 hurdat_epa main 1006 996 O_________O___ hurdat_epa EP131981 16.1000 -116.300 TS 40 0 16.1000 -116.300 2 40 5 339
1981281N15245 1981 90 EP MM MAX 1981-10-08 15:00:00 TS 16.3084 -116.397 main 996 987 P_________P___ EP131981 16.3075 -116.393 TS 40 0 16.3112 -116.410 2 40 5 334
1981281N15245 1981 90 EP MM MAX 1981-10-08 18:00:00 TS 16.5037 -116.507 40 hurdat_epa main 987 978 O_________P___ hurdat_epa EP131981 16.5000 -116.500 TS 40 0 16.5149 -116.528 2 40 5 329
1981281N15245 1981 90 EP MM MAX 1981-10-08 21:00:00 TS 16.7028 -116.640 main 978 977 P_________P___ EP131981 16.7000 -116.635 TS 40 0 16.7112 -116.657 2 40 5 325
1981281N15245 1981 90 EP MM MAX 1981-10-09 00:00:00 TS 16.9000 -116.800 40 hurdat_epa main 977 969 O_________O___ hurdat_epa EP131981 16.9000 -116.800 TS 40 0 16.9000 -116.800 2 40 5 320
1981281N15245 1981 90 EP MM MAX 1981-10-09 03:00:00 TS 17.1012 -116.993 main 977 969 P_________P___ EP131981 17.1075 -117.000 TS 42 0 17.0823 -116.973 2 40 5 316
1981281N15245 1981 90 EP MM MAX 1981-10-09 06:00:00 TS 17.2894 -117.189 45 hurdat_epa main 978 977 O_________P___ hurdat_epa EP131981 17.3000 -117.200 TS 45 0 17.2576 -117.157 2 40 5 315
1981281N15245 1981 90 EP MM MAX 1981-10-09 09:00:00 TS 17.4504 -117.358 main 974 971 P_________P___ EP131981 17.4575 -117.365 TS 42 0 17.4291 -117.338 2 40 4 316
1981281N15245 1981 90 EP MM MAX 1981-10-09 12:00:00 TS 17.6000 -117.500 40 hurdat_epa main 971 961 O_________O___ hurdat_epa EP131981 17.6000 -117.500 TS 40 0 17.6000 -117.500 2 40 4 321
1981281N15245 1981 90 EP MM MAX 1981-10-09 15:00:00 TS 17.7536 -117.612 main 958 956 P_________P___ EP131981 17.7425 -117.608 TS 37 0 17.7871 -117.626 2 37 4 328
1981281N15245 1981 90 EP MM MAX 1981-10-09 18:00:00 TS 17.9181 -117.708 35 hurdat_epa main 956 944 O_________P___ hurdat_epa EP131981 17.9000 -117.700 TS 35 0 17.9724 -117.730 2 35 4 333
1981281N15245 1981 90 EP MM MAX 1981-10-09 21:00:00 TS 18.1173 -117.810 main 944 933 P_________P___ EP131981 18.1075 -117.807 TS 32 -1 18.1465 -117.819 2 32 4 335
1981281N15245 1981 90 EP MM MAX 1981-10-10 00:00:00 TS 18.3000 -117.900 30 hurdat_epa main 933 924 O_________O___ hurdat_epa EP131981 18.3000 -117.900 TD 30 -1 18.3000 -117.900 1 30 3 335
1981281N15245 1981 90 EP MM MAX 1981-10-10 03:00:00 TS 18.4163 -117.959 main 931 922 P_________P___ EP131981 18.4150 -117.950 TD 30 -1 18.4204 -117.987 1 28 2 331
1981281N15245 1981 90 EP MM MAX 1981-10-10 06:00:00 TS 18.5051 -118.017 30 hurdat_epa main 922 921 O_________P___ hurdat_epa EP131981 18.5000 -118.000 TD 30 -1 18.5204 -118.067 1 27 2 323
1981281N15245 1981 90 EP MM MAX 1981-10-10 09:00:00 TS 18.6026 -118.110 main 921 920 P_________P___ EP131981 18.6000 -118.100 TD 27 -1 18.6102 -118.138 1 26 3 319
1981281N15245 1981 90 EP MM MAX 1981-10-10 12:00:00 TS 18.7000 -118.200 25 hurdat_epa main 920 911 O_________O___ hurdat_epa EP131981 18.7000 -118.200 TD 25 -1 18.7000 -118.200 1 25 2 324
1981281N15245 1981 90 EP MM MAX 1981-10-10 15:00:00 TS 18.7994 -118.260 main 918 910 P_________P___ EP131981 18.8000 -118.263 TD 22 -1 18.7974 -118.253 1 22 2 333
1981281N15245 1981 90 EP MM MAX 1981-10-10 18:00:00 TS 18.9000 -118.300 20 hurdat_epa main 910 O_________O___ hurdat_epa EP131981 18.9000 -118.300 TD 20 -1 18.9000 -118.300 1 20 2 344

About IBTrACS Database

This database is a web-friendly format of International Best Track Archive for Climate Stewardship (IBTrACS), a global best track data archive curated by NOAA dating back to 1842.

Updated: 2021-12-08